sensor_id;sensor_type;location;lat;lon;timestamp;P1;durP1;ratioP1;P2;durP2;ratioP2
36585;SDS011;22591;48.314;11.562;2023-04-25T00:01:58;6.80;;;3.50;;
36585;SDS011;22591;48.314;11.562;2023-04-25T00:04:24;3.33;;;3.03;;
36585;SDS011;22591;48.314;11.562;2023-04-25T00:06:51;2.97;;;2.72;;
36585;SDS011;22591;48.314;11.562;2023-04-25T00:09:18;4.82;;;3.03;;
36585;SDS011;22591;48.314;11.562;2023-04-25T00:11:43;3.20;;;3.00;;
36585;SDS011;22591;48.314;11.562;2023-04-25T00:14:09;3.83;;;3.33;;
36585;SDS011;22591;48.314;11.562;2023-04-25T00:16:35;5.70;;;3.58;;
36585;SDS011;22591;48.314;11.562;2023-04-25T00:19:01;4.13;;;3.30;;
36585;SDS011;22591;48.314;11.562;2023-04-25T00:21:27;3.60;;;3.20;;
36585;SDS011;22591;48.314;11.562;2023-04-25T00:23:53;4.15;;;3.28;;
36585;SDS011;22591;48.314;11.562;2023-04-25T00:26:19;3.58;;;2.78;;
36585;SDS011;22591;48.314;11.562;2023-04-25T00:28:46;3.60;;;3.40;;
36585;SDS011;22591;48.314;11.562;2023-04-25T00:31:12;3.70;;;3.50;;
36585;SDS011;22591;48.314;11.562;2023-04-25T00:33:37;3.50;;;3.30;;
36585;SDS011;22591;48.314;11.562;2023-04-25T00:36:03;4.00;;;3.72;;
36585;SDS011;22591;48.314;11.562;2023-04-25T00:38:29;6.03;;;3.35;;
36585;SDS011;22591;48.314;11.562;2023-04-25T00:40:54;3.40;;;3.20;;
36585;SDS011;22591;48.314;11.562;2023-04-25T00:43:20;4.88;;;3.25;;
36585;SDS011;22591;48.314;11.562;2023-04-25T00:45:46;3.35;;;3.08;;
36585;SDS011;22591;48.314;11.562;2023-04-25T00:48:16;3.55;;;3.35;;
36585;SDS011;22591;48.314;11.562;2023-04-25T00:50:44;4.05;;;3.63;;
36585;SDS011;22591;48.314;11.562;2023-04-25T00:53:19;3.08;;;2.88;;
36585;SDS011;22591;48.314;11.562;2023-04-25T00:55:45;4.38;;;3.00;;
36585;SDS011;22591;48.314;11.562;2023-04-25T00:58:11;6.45;;;3.67;;
36585;SDS011;22591;48.314;11.562;2023-04-25T01:00:36;6.50;;;3.40;;
36585;SDS011;22591;48.314;11.562;2023-04-25T01:03:02;3.63;;;3.40;;
36585;SDS011;22591;48.314;11.562;2023-04-25T01:05:29;3.55;;;3.25;;
36585;SDS011;22591;48.314;11.562;2023-04-25T01:07:54;5.75;;;3.17;;
36585;SDS011;22591;48.314;11.562;2023-04-25T01:10:20;4.72;;;3.22;;
36585;SDS011;22591;48.314;11.562;2023-04-25T01:12:46;3.95;;;3.75;;
36585;SDS011;22591;48.314;11.562;2023-04-25T01:15:12;4.03;;;3.50;;
36585;SDS011;22591;48.314;11.562;2023-04-25T01:17:37;3.60;;;3.35;;
36585;SDS011;22591;48.314;11.562;2023-04-25T01:20:05;3.53;;;3.22;;
36585;SDS011;22591;48.314;11.562;2023-04-25T01:22:32;4.10;;;3.78;;
36585;SDS011;22591;48.314;11.562;2023-04-25T01:24:58;6.20;;;3.83;;
36585;SDS011;22591;48.314;11.562;2023-04-25T01:27:25;5.55;;;3.60;;
36585;SDS011;22591;48.314;11.562;2023-04-25T01:29:51;6.10;;;3.47;;
36585;SDS011;22591;48.314;11.562;2023-04-25T01:32:18;3.40;;;3.20;;
36585;SDS011;22591;48.314;11.562;2023-04-25T01:34:45;3.97;;;3.67;;
36585;SDS011;22591;48.314;11.562;2023-04-25T01:37:11;4.40;;;4.07;;
36585;SDS011;22591;48.314;11.562;2023-04-25T01:39:36;3.80;;;3.33;;
36585;SDS011;22591;48.314;11.562;2023-04-25T01:42:02;3.45;;;3.17;;
36585;SDS011;22591;48.314;11.562;2023-04-25T01:44:28;3.95;;;3.67;;
36585;SDS011;22591;48.314;11.562;2023-04-25T01:46:53;3.75;;;3.55;;
36585;SDS011;22591;48.314;11.562;2023-04-25T01:49:19;4.13;;;3.80;;
36585;SDS011;22591;48.314;11.562;2023-04-25T01:51:45;3.97;;;3.67;;
36585;SDS011;22591;48.314;11.562;2023-04-25T01:54:10;3.40;;;3.20;;
36585;SDS011;22591;48.314;11.562;2023-04-25T01:56:37;5.63;;;3.53;;
36585;SDS011;22591;48.314;11.562;2023-04-25T01:59:04;4.00;;;3.60;;
36585;SDS011;22591;48.314;11.562;2023-04-25T02:01:30;7.05;;;4.10;;
36585;SDS011;22591;48.314;11.562;2023-04-25T02:03:56;4.30;;;3.90;;
36585;SDS011;22591;48.314;11.562;2023-04-25T02:06:21;3.83;;;3.53;;
36585;SDS011;22591;48.314;11.562;2023-04-25T02:08:47;7.43;;;4.10;;
36585;SDS011;22591;48.314;11.562;2023-04-25T02:11:12;4.88;;;4.38;;
36585;SDS011;22591;48.314;11.562;2023-04-25T02:13:38;4.50;;;4.10;;
36585;SDS011;22591;48.314;11.562;2023-04-25T02:16:04;4.28;;;3.97;;
36585;SDS011;22591;48.314;11.562;2023-04-25T02:18:30;4.15;;;3.78;;
36585;SDS011;22591;48.314;11.562;2023-04-25T02:20:56;4.13;;;3.72;;
36585;SDS011;22591;48.314;11.562;2023-04-25T02:23:23;4.10;;;3.83;;
36585;SDS011;22591;48.314;11.562;2023-04-25T02:25:49;3.60;;;3.33;;
36585;SDS011;22591;48.314;11.562;2023-04-25T02:28:15;3.83;;;3.53;;
36585;SDS011;22591;48.314;11.562;2023-04-25T02:30:40;3.75;;;3.55;;
36585;SDS011;22591;48.314;11.562;2023-04-25T02:33:06;4.18;;;3.67;;
36585;SDS011;22591;48.314;11.562;2023-04-25T02:35:31;3.70;;;3.40;;
36585;SDS011;22591;48.314;11.562;2023-04-25T02:37:57;3.85;;;3.47;;
36585;SDS011;22591;48.314;11.562;2023-04-25T02:40:23;4.32;;;3.20;;
36585;SDS011;22591;48.314;11.562;2023-04-25T02:42:48;3.58;;;3.28;;
36585;SDS011;22591;48.314;11.562;2023-04-25T02:45:14;3.97;;;3.67;;
36585;SDS011;22591;48.314;11.562;2023-04-25T02:47:39;4.82;;;3.83;;
36585;SDS011;22591;48.314;11.562;2023-04-25T02:50:05;3.47;;;3.28;;
36585;SDS011;22591;48.314;11.562;2023-04-25T02:52:31;4.32;;;3.72;;
36585;SDS011;22591;48.314;11.562;2023-04-25T02:54:57;3.92;;;3.63;;
36585;SDS011;22591;48.314;11.562;2023-04-25T02:57:22;5.15;;;3.60;;
36585;SDS011;22591;48.314;11.562;2023-04-25T02:59:48;4.10;;;3.20;;
36585;SDS011;22591;48.314;11.562;2023-04-25T03:02:13;3.80;;;3.47;;
36585;SDS011;22591;48.314;11.562;2023-04-25T03:04:39;3.70;;;3.50;;
36585;SDS011;22591;48.314;11.562;2023-04-25T03:07:04;6.15;;;3.38;;
36585;SDS011;22591;48.314;11.562;2023-04-25T03:09:30;3.95;;;3.45;;
36585;SDS011;22591;48.314;11.562;2023-04-25T03:11:56;3.80;;;3.50;;
36585;SDS011;22591;48.314;11.562;2023-04-25T03:14:21;5.35;;;3.33;;
36585;SDS011;22591;48.314;11.562;2023-04-25T03:16:47;3.55;;;3.20;;
36585;SDS011;22591;48.314;11.562;2023-04-25T03:19:12;3.65;;;3.45;;
36585;SDS011;22591;48.314;11.562;2023-04-25T03:21:40;4.32;;;3.92;;
36585;SDS011;22591;48.314;11.562;2023-04-25T03:24:06;4.10;;;3.45;;
36585;SDS011;22591;48.314;11.562;2023-04-25T03:26:32;3.30;;;3.10;;
36585;SDS011;22591;48.314;11.562;2023-04-25T03:28:57;4.38;;;4.00;;
36585;SDS011;22591;48.314;11.562;2023-04-25T03:31:23;4.30;;;3.97;;
36585;SDS011;22591;48.314;11.562;2023-04-25T03:33:48;4.80;;;4.40;;
36585;SDS011;22591;48.314;11.562;2023-04-25T03:36:14;4.25;;;3.95;;
36585;SDS011;22591;48.314;11.562;2023-04-25T03:38:39;5.10;;;3.78;;
36585;SDS011;22591;48.314;11.562;2023-04-25T03:41:06;6.32;;;4.00;;
36585;SDS011;22591;48.314;11.562;2023-04-25T03:43:32;4.43;;;4.03;;
36585;SDS011;22591;48.314;11.562;2023-04-25T03:45:58;4.03;;;3.60;;
36585;SDS011;22591;48.314;11.562;2023-04-25T03:48:25;7.55;;;4.20;;
36585;SDS011;22591;48.314;11.562;2023-04-25T03:50:51;5.45;;;4.75;;
36585;SDS011;22591;48.314;11.562;2023-04-25T03:53:17;4.20;;;3.67;;
36585;SDS011;22591;48.314;11.562;2023-04-25T03:55:43;4.43;;;3.95;;
36585;SDS011;22591;48.314;11.562;2023-04-25T03:58:08;4.07;;;3.60;;
36585;SDS011;22591;48.314;11.562;2023-04-25T04:00:34;5.50;;;3.97;;
36585;SDS011;22591;48.314;11.562;2023-04-25T04:03:00;6.28;;;4.07;;
36585;SDS011;22591;48.314;11.562;2023-04-25T04:05:26;5.28;;;4.05;;
36585;SDS011;22591;48.314;11.562;2023-04-25T04:07:52;5.70;;;4.20;;
36585;SDS011;22591;48.314;11.562;2023-04-25T04:10:18;4.22;;;3.75;;
36585;SDS011;22591;48.314;11.562;2023-04-25T04:12:43;5.78;;;4.45;;
36585;SDS011;22591;48.314;11.562;2023-04-25T04:15:09;4.68;;;4.28;;
36585;SDS011;22591;48.314;11.562;2023-04-25T04:17:35;6.15;;;3.33;;
36585;SDS011;22591;48.314;11.562;2023-04-25T04:20:01;4.80;;;3.65;;
36585;SDS011;22591;48.314;11.562;2023-04-25T04:22:28;3.13;;;2.92;;
36585;SDS011;22591;48.314;11.562;2023-04-25T04:24:54;4.80;;;3.20;;
36585;SDS011;22591;48.314;11.562;2023-04-25T04:27:19;3.38;;;2.85;;
36585;SDS011;22591;48.314;11.562;2023-04-25T04:29:46;2.95;;;2.60;;
36585;SDS011;22591;48.314;11.562;2023-04-25T04:32:12;3.17;;;2.53;;
36585;SDS011;22591;48.314;11.562;2023-04-25T04:34:39;3.20;;;2.80;;
36585;SDS011;22591;48.314;11.562;2023-04-25T04:37:06;2.65;;;2.40;;
36585;SDS011;22591;48.314;11.562;2023-04-25T04:39:32;5.82;;;2.53;;
36585;SDS011;22591;48.314;11.562;2023-04-25T04:41:58;3.00;;;2.67;;
36585;SDS011;22591;48.314;11.562;2023-04-25T04:44:24;3.10;;;2.90;;
36585;SDS011;22591;48.314;11.562;2023-04-25T04:46:50;2.65;;;2.42;;
36585;SDS011;22591;48.314;11.562;2023-04-25T04:49:16;2.88;;;2.67;;
36585;SDS011;22591;48.314;11.562;2023-04-25T04:51:42;2.50;;;2.40;;
36585;SDS011;22591;48.314;11.562;2023-04-25T04:54:09;3.15;;;2.60;;
36585;SDS011;22591;48.314;11.562;2023-04-25T04:56:35;3.13;;;2.80;;
36585;SDS011;22591;48.314;11.562;2023-04-25T04:59:00;3.45;;;2.45;;
36585;SDS011;22591;48.314;11.562;2023-04-25T05:01:28;3.63;;;2.67;;
36585;SDS011;22591;48.314;11.562;2023-04-25T05:03:56;4.13;;;2.97;;
36585;SDS011;22591;48.314;11.562;2023-04-25T05:06:25;3.00;;;2.65;;
36585;SDS011;22591;48.314;11.562;2023-04-25T05:08:51;4.60;;;3.15;;
36585;SDS011;22591;48.314;11.562;2023-04-25T05:11:17;2.95;;;2.72;;
36585;SDS011;22591;48.314;11.562;2023-04-25T05:13:43;3.80;;;2.90;;
36585;SDS011;22591;48.314;11.562;2023-04-25T05:16:10;3.25;;;3.05;;
36585;SDS011;22591;48.314;11.562;2023-04-25T05:18:36;3.40;;;2.60;;
36585;SDS011;22591;48.314;11.562;2023-04-25T05:21:02;3.47;;;3.22;;
36585;SDS011;22591;48.314;11.562;2023-04-25T05:23:28;3.22;;;2.90;;
36585;SDS011;22591;48.314;11.562;2023-04-25T05:25:55;4.97;;;2.53;;
36585;SDS011;22591;48.314;11.562;2023-04-25T05:28:21;5.57;;;2.85;;
36585;SDS011;22591;48.314;11.562;2023-04-25T05:30:46;4.75;;;2.88;;
36585;SDS011;22591;48.314;11.562;2023-04-25T05:33:12;3.35;;;3.08;;
36585;SDS011;22591;48.314;11.562;2023-04-25T05:35:38;5.72;;;3.35;;
36585;SDS011;22591;48.314;11.562;2023-04-25T05:38:03;4.38;;;3.17;;
36585;SDS011;22591;48.314;11.562;2023-04-25T05:40:29;3.10;;;2.85;;
36585;SDS011;22591;48.314;11.562;2023-04-25T05:42:54;2.83;;;2.63;;
36585;SDS011;22591;48.314;11.562;2023-04-25T05:45:20;3.33;;;3.13;;
36585;SDS011;22591;48.314;11.562;2023-04-25T05:47:45;4.65;;;2.72;;
36585;SDS011;22591;48.314;11.562;2023-04-25T05:50:11;5.53;;;3.00;;
36585;SDS011;22591;48.314;11.562;2023-04-25T05:52:36;5.10;;;3.08;;
36585;SDS011;22591;48.314;11.562;2023-04-25T05:55:02;3.03;;;2.75;;
36585;SDS011;22591;48.314;11.562;2023-04-25T05:57:28;3.58;;;3.00;;
36585;SDS011;22591;48.314;11.562;2023-04-25T05:59:53;3.08;;;2.88;;
36585;SDS011;22591;48.314;11.562;2023-04-25T06:02:19;5.10;;;3.17;;
36585;SDS011;22591;48.314;11.562;2023-04-25T06:04:46;4.82;;;3.65;;
36585;SDS011;22591;48.314;11.562;2023-04-25T06:07:14;5.32;;;3.58;;
36585;SDS011;22591;48.314;11.562;2023-04-25T06:09:39;4.95;;;3.33;;
36585;SDS011;22591;48.314;11.562;2023-04-25T06:12:06;4.18;;;3.88;;
36585;SDS011;22591;48.314;11.562;2023-04-25T06:14:32;8.68;;;3.75;;
36585;SDS011;22591;48.314;11.562;2023-04-25T06:17:00;4.90;;;3.53;;
36585;SDS011;22591;48.314;11.562;2023-04-25T06:19:31;7.00;;;3.80;;
36585;SDS011;22591;48.314;11.562;2023-04-25T06:21:57;4.20;;;3.90;;
36585;SDS011;22591;48.314;11.562;2023-04-25T06:24:23;3.35;;;3.05;;
36585;SDS011;22591;48.314;11.562;2023-04-25T06:26:48;3.97;;;3.70;;
36585;SDS011;22591;48.314;11.562;2023-04-25T06:29:14;3.70;;;3.40;;
36585;SDS011;22591;48.314;11.562;2023-04-25T06:31:40;4.15;;;3.80;;
36585;SDS011;22591;48.314;11.562;2023-04-25T06:34:05;4.32;;;3.85;;
36585;SDS011;22591;48.314;11.562;2023-04-25T06:36:31;5.50;;;4.50;;
36585;SDS011;22591;48.314;11.562;2023-04-25T06:38:56;4.70;;;4.30;;
36585;SDS011;22591;48.314;11.562;2023-04-25T06:41:22;5.07;;;4.45;;
36585;SDS011;22591;48.314;11.562;2023-04-25T06:43:47;4.22;;;3.75;;
36585;SDS011;22591;48.314;11.562;2023-04-25T06:46:13;6.53;;;4.70;;
36585;SDS011;22591;48.314;11.562;2023-04-25T06:48:38;4.97;;;4.00;;
36585;SDS011;22591;48.314;11.562;2023-04-25T06:51:04;5.13;;;4.55;;
36585;SDS011;22591;48.314;11.562;2023-04-25T06:53:30;4.78;;;4.10;;
36585;SDS011;22591;48.314;11.562;2023-04-25T06:55:55;6.55;;;3.67;;
36585;SDS011;22591;48.314;11.562;2023-04-25T06:58:21;4.13;;;3.35;;
36585;SDS011;22591;48.314;11.562;2023-04-25T07:00:47;4.93;;;3.00;;
36585;SDS011;22591;48.314;11.562;2023-04-25T07:03:12;6.35;;;3.00;;
36585;SDS011;22591;48.314;11.562;2023-04-25T07:05:38;3.90;;;2.70;;
36585;SDS011;22591;48.314;11.562;2023-04-25T07:08:03;2.60;;;2.40;;
36585;SDS011;22591;48.314;11.562;2023-04-25T07:10:29;3.83;;;2.60;;
36585;SDS011;22591;48.314;11.562;2023-04-25T07:12:55;3.08;;;2.85;;
36585;SDS011;22591;48.314;11.562;2023-04-25T07:15:20;4.35;;;3.13;;
36585;SDS011;22591;48.314;11.562;2023-04-25T07:17:46;4.25;;;3.03;;
36585;SDS011;22591;48.314;11.562;2023-04-25T07:20:11;4.80;;;3.10;;
36585;SDS011;22591;48.314;11.562;2023-04-25T07:22:37;3.75;;;3.03;;
36585;SDS011;22591;48.314;11.562;2023-04-25T07:25:02;5.82;;;3.30;;
36585;SDS011;22591;48.314;11.562;2023-04-25T07:27:29;3.78;;;3.10;;
36585;SDS011;22591;48.314;11.562;2023-04-25T07:29:55;4.93;;;2.70;;
36585;SDS011;22591;48.314;11.562;2023-04-25T07:32:21;5.43;;;3.38;;
36585;SDS011;22591;48.314;11.562;2023-04-25T07:34:46;4.25;;;3.63;;
36585;SDS011;22591;48.314;11.562;2023-04-25T07:37:12;4.63;;;3.65;;
36585;SDS011;22591;48.314;11.562;2023-04-25T07:39:39;7.40;;;3.78;;
36585;SDS011;22591;48.314;11.562;2023-04-25T07:42:04;4.22;;;3.80;;
36585;SDS011;22591;48.314;11.562;2023-04-25T07:44:32;3.80;;;3.22;;
36585;SDS011;22591;48.314;11.562;2023-04-25T07:47:08;5.00;;;3.80;;
36585;SDS011;22591;48.314;11.562;2023-04-25T07:49:35;4.80;;;3.40;;
36585;SDS011;22591;48.314;11.562;2023-04-25T07:52:01;3.50;;;3.20;;
36585;SDS011;22591;48.314;11.562;2023-04-25T07:54:28;4.25;;;3.50;;
36585;SDS011;22591;48.314;11.562;2023-04-25T07:56:53;4.15;;;3.75;;
36585;SDS011;22591;48.314;11.562;2023-04-25T07:59:19;3.42;;;3.10;;
36585;SDS011;22591;48.314;11.562;2023-04-25T08:01:45;3.97;;;2.70;;
36585;SDS011;22591;48.314;11.562;2023-04-25T08:04:10;3.15;;;2.78;;
36585;SDS011;22591;48.314;11.562;2023-04-25T08:06:36;3.22;;;2.95;;
36585;SDS011;22591;48.314;11.562;2023-04-25T08:09:02;3.35;;;3.05;;
36585;SDS011;22591;48.314;11.562;2023-04-25T08:11:28;3.45;;;2.92;;
36585;SDS011;22591;48.314;11.562;2023-04-25T08:13:53;2.60;;;2.40;;
36585;SDS011;22591;48.314;11.562;2023-04-25T08:16:19;3.75;;;2.42;;
36585;SDS011;22591;48.314;11.562;2023-04-25T08:18:45;2.85;;;2.10;;
36585;SDS011;22591;48.314;11.562;2023-04-25T08:21:10;2.72;;;2.58;;
36585;SDS011;22591;48.314;11.562;2023-04-25T08:23:37;2.53;;;2.42;;
36585;SDS011;22591;48.314;11.562;2023-04-25T08:26:02;2.40;;;2.20;;
36585;SDS011;22591;48.314;11.562;2023-04-25T08:28:29;2.90;;;2.20;;
36585;SDS011;22591;48.314;11.562;2023-04-25T08:30:55;2.78;;;2.53;;
36585;SDS011;22591;48.314;11.562;2023-04-25T08:33:20;2.75;;;2.42;;
36585;SDS011;22591;48.314;11.562;2023-04-25T08:35:46;2.33;;;2.20;;
36585;SDS011;22591;48.314;11.562;2023-04-25T08:38:11;2.60;;;2.40;;
36585;SDS011;22591;48.314;11.562;2023-04-25T08:40:38;2.38;;;2.10;;
36585;SDS011;22591;48.314;11.562;2023-04-25T08:43:05;2.50;;;2.30;;
36585;SDS011;22591;48.314;11.562;2023-04-25T08:45:36;1.70;;;1.40;;
36585;SDS011;22591;48.314;11.562;2023-04-25T08:48:05;2.53;;;1.92;;
36585;SDS011;22591;48.314;11.562;2023-04-25T08:50:35;3.75;;;1.65;;
36585;SDS011;22591;48.314;11.562;2023-04-25T08:53:05;2.05;;;1.83;;
36585;SDS011;22591;48.314;11.562;2023-04-25T08:55:37;2.78;;;1.80;;
36585;SDS011;22591;48.314;11.562;2023-04-25T08:58:06;1.77;;;1.67;;
36585;SDS011;22591;48.314;11.562;2023-04-25T09:00:32;2.13;;;1.90;;
36585;SDS011;22591;48.314;11.562;2023-04-25T09:02:58;1.52;;;1.48;;
36585;SDS011;22591;48.314;11.562;2023-04-25T09:05:24;2.22;;;2.05;;
36585;SDS011;22591;48.314;11.562;2023-04-25T09:07:50;2.45;;;2.15;;
36585;SDS011;22591;48.314;11.562;2023-04-25T09:10:16;2.10;;;1.90;;
36585;SDS011;22591;48.314;11.562;2023-04-25T09:12:41;2.78;;;2.25;;
36585;SDS011;22591;48.314;11.562;2023-04-25T09:15:08;2.70;;;1.80;;
36585;SDS011;22591;48.314;11.562;2023-04-25T09:17:35;1.77;;;1.67;;
36585;SDS011;22591;48.314;11.562;2023-04-25T09:20:08;4.53;;;2.17;;
36585;SDS011;22591;48.314;11.562;2023-04-25T09:22:35;2.10;;;1.90;;
36585;SDS011;22591;48.314;11.562;2023-04-25T09:25:08;2.40;;;1.77;;
36585;SDS011;22591;48.314;11.562;2023-04-25T09:27:35;1.95;;;1.80;;
36585;SDS011;22591;48.314;11.562;2023-04-25T09:30:00;1.95;;;1.85;;
36585;SDS011;22591;48.314;11.562;2023-04-25T09:32:27;3.58;;;1.98;;
36585;SDS011;22591;48.314;11.562;2023-04-25T09:34:53;4.03;;;2.67;;
36585;SDS011;22591;48.314;11.562;2023-04-25T09:37:24;2.35;;;1.80;;
36585;SDS011;22591;48.314;11.562;2023-04-25T09:39:53;1.70;;;1.60;;
36585;SDS011;22591;48.314;11.562;2023-04-25T09:42:23;2.92;;;1.42;;
36585;SDS011;22591;48.314;11.562;2023-04-25T09:44:51;1.77;;;1.58;;
36585;SDS011;22591;48.314;11.562;2023-04-25T09:47:18;1.52;;;1.40;;
36585;SDS011;22591;48.314;11.562;2023-04-25T09:49:46;2.75;;;1.92;;
36585;SDS011;22591;48.314;11.562;2023-04-25T09:52:16;2.15;;;2.00;;
36585;SDS011;22591;48.314;11.562;2023-04-25T09:54:43;2.57;;;2.37;;
36585;SDS011;22591;48.314;11.562;2023-04-25T09:57:11;5.00;;;2.28;;
36585;SDS011;22591;48.314;11.562;2023-04-25T09:59:48;3.75;;;2.25;;
36585;SDS011;22591;48.314;11.562;2023-04-25T10:02:15;4.47;;;2.53;;
36585;SDS011;22591;48.314;11.562;2023-04-25T10:04:44;2.10;;;2.00;;
36585;SDS011;22591;48.314;11.562;2023-04-25T10:07:13;2.00;;;1.90;;
36585;SDS011;22591;48.314;11.562;2023-04-25T10:09:40;2.30;;;2.08;;
36585;SDS011;22591;48.314;11.562;2023-04-25T10:12:07;2.03;;;1.85;;
36585;SDS011;22591;48.314;11.562;2023-04-25T10:14:33;1.80;;;1.70;;
36585;SDS011;22591;48.314;11.562;2023-04-25T10:16:59;2.35;;;1.80;;
36585;SDS011;22591;48.314;11.562;2023-04-25T10:19:26;1.70;;;1.30;;
36585;SDS011;22591;48.314;11.562;2023-04-25T10:21:55;4.00;;;2.00;;
36585;SDS011;22591;48.314;11.562;2023-04-25T10:24:28;1.80;;;1.70;;
36585;SDS011;22591;48.314;11.562;2023-04-25T10:26:54;2.58;;;1.80;;
36585;SDS011;22591;48.314;11.562;2023-04-25T10:29:22;3.20;;;1.65;;
36585;SDS011;22591;48.314;11.562;2023-04-25T10:31:49;3.13;;;1.55;;
36585;SDS011;22591;48.314;11.562;2023-04-25T10:34:15;1.35;;;1.25;;
36585;SDS011;22591;48.314;11.562;2023-04-25T10:36:42;2.53;;;1.30;;
36585;SDS011;22591;48.314;11.562;2023-04-25T10:39:08;1.20;;;1.20;;
36585;SDS011;22591;48.314;11.562;2023-04-25T10:41:46;2.50;;;1.40;;
36585;SDS011;22591;48.314;11.562;2023-04-25T10:44:15;1.88;;;1.77;;
36585;SDS011;22591;48.314;11.562;2023-04-25T10:46:40;2.22;;;1.75;;
36585;SDS011;22591;48.314;11.562;2023-04-25T10:49:06;1.90;;;1.80;;
36585;SDS011;22591;48.314;11.562;2023-04-25T10:51:34;1.58;;;1.40;;
36585;SDS011;22591;48.314;11.562;2023-04-25T10:54:02;1.80;;;1.70;;
36585;SDS011;22591;48.314;11.562;2023-04-25T10:56:39;2.55;;;2.35;;
36585;SDS011;22591;48.314;11.562;2023-04-25T10:59:07;3.20;;;2.15;;
36585;SDS011;22591;48.314;11.562;2023-04-25T11:01:37;2.58;;;2.22;;
36585;SDS011;22591;48.314;11.562;2023-04-25T11:09:18;7.13;;;3.35;;
36585;SDS011;22591;48.314;11.562;2023-04-25T11:11:52;5.32;;;2.53;;
36585;SDS011;22591;48.314;11.562;2023-04-25T11:14:19;6.55;;;2.30;;
36585;SDS011;22591;48.314;11.562;2023-04-25T11:16:45;14.20;;;2.22;;
36585;SDS011;22591;48.314;11.562;2023-04-25T11:19:11;2.50;;;2.30;;
36585;SDS011;22591;48.314;11.562;2023-04-25T11:21:36;2.90;;;2.63;;
36585;SDS011;22591;48.314;11.562;2023-04-25T11:24:02;2.92;;;2.67;;
36585;SDS011;22591;48.314;11.562;2023-04-25T11:26:27;2.58;;;2.38;;
36585;SDS011;22591;48.314;11.562;2023-04-25T11:28:58;2.65;;;2.45;;
36585;SDS011;22591;48.314;11.562;2023-04-25T11:31:27;4.13;;;3.83;;
36585;SDS011;22591;48.314;11.562;2023-04-25T11:33:56;4.30;;;4.00;;
36585;SDS011;22591;48.314;11.562;2023-04-25T11:36:22;4.28;;;3.88;;
36585;SDS011;22591;48.314;11.562;2023-04-25T11:38:50;3.63;;;2.88;;
36585;SDS011;22591;48.314;11.562;2023-04-25T11:41:16;2.60;;;2.50;;
36585;SDS011;22591;48.314;11.562;2023-04-25T11:43:43;3.38;;;2.72;;
36585;SDS011;22591;48.314;11.562;2023-04-25T11:46:09;3.38;;;3.13;;
36585;SDS011;22591;48.314;11.562;2023-04-25T11:48:38;2.80;;;2.67;;
36585;SDS011;22591;48.314;11.562;2023-04-25T11:51:05;3.10;;;2.80;;
36585;SDS011;22591;48.314;11.562;2023-04-25T11:53:30;2.90;;;2.70;;
36585;SDS011;22591;48.314;11.562;2023-04-25T11:55:56;2.95;;;2.85;;
36585;SDS011;22591;48.314;11.562;2023-04-25T11:58:22;2.85;;;2.72;;
36585;SDS011;22591;48.314;11.562;2023-04-25T12:00:47;2.70;;;2.58;;
36585;SDS011;22591;48.314;11.562;2023-04-25T12:03:13;2.30;;;2.10;;
36585;SDS011;22591;48.314;11.562;2023-04-25T12:05:39;1.90;;;1.80;;
36585;SDS011;22591;48.314;11.562;2023-04-25T12:08:14;2.40;;;1.95;;
36585;SDS011;22591;48.314;11.562;2023-04-25T12:10:42;1.63;;;1.48;;
36585;SDS011;22591;48.314;11.562;2023-04-25T12:13:21;1.60;;;1.50;;
36585;SDS011;22591;48.314;11.562;2023-04-25T12:15:48;2.50;;;1.63;;
36585;SDS011;22591;48.314;11.562;2023-04-25T12:18:14;1.50;;;1.38;;
36585;SDS011;22591;48.314;11.562;2023-04-25T12:20:41;2.08;;;1.98;;
36585;SDS011;22591;48.314;11.562;2023-04-25T12:23:07;1.88;;;1.77;;
36585;SDS011;22591;48.314;11.562;2023-04-25T12:25:36;2.85;;;2.10;;
36585;SDS011;22591;48.314;11.562;2023-04-25T12:28:10;2.88;;;1.80;;
36585;SDS011;22591;48.314;11.562;2023-04-25T12:30:52;2.10;;;2.00;;
36585;SDS011;22591;48.314;11.562;2023-04-25T12:33:29;3.25;;;2.40;;
36585;SDS011;22591;48.314;11.562;2023-04-25T12:35:57;2.00;;;1.90;;
36585;SDS011;22591;48.314;11.562;2023-04-25T12:38:27;2.08;;;1.90;;
36585;SDS011;22591;48.314;11.562;2023-04-25T12:40:57;1.70;;;1.60;;
36585;SDS011;22591;48.314;11.562;2023-04-25T12:43:23;2.30;;;2.20;;
36585;SDS011;22591;48.314;11.562;2023-04-25T12:45:49;3.72;;;2.25;;
36585;SDS011;22591;48.314;11.562;2023-04-25T12:48:16;2.63;;;2.33;;
36585;SDS011;22591;48.314;11.562;2023-04-25T12:50:42;3.13;;;2.83;;
36585;SDS011;22591;48.314;11.562;2023-04-25T12:53:08;4.40;;;2.40;;
36585;SDS011;22591;48.314;11.562;2023-04-25T12:55:34;3.85;;;2.03;;
36585;SDS011;22591;48.314;11.562;2023-04-25T12:58:00;2.50;;;2.33;;
36585;SDS011;22591;48.314;11.562;2023-04-25T13:00:25;2.80;;;2.10;;
36585;SDS011;22591;48.314;11.562;2023-04-25T13:02:51;3.38;;;1.98;;
36585;SDS011;22591;48.314;11.562;2023-04-25T13:05:17;2.05;;;1.95;;
36585;SDS011;22591;48.314;11.562;2023-04-25T13:07:42;2.10;;;2.00;;
36585;SDS011;22591;48.314;11.562;2023-04-25T13:10:08;2.42;;;2.22;;
36585;SDS011;22591;48.314;11.562;2023-04-25T13:12:34;2.13;;;2.03;;
36585;SDS011;22591;48.314;11.562;2023-04-25T13:15:00;1.67;;;1.58;;
36585;SDS011;22591;48.314;11.562;2023-04-25T13:17:25;2.20;;;2.10;;
36585;SDS011;22591;48.314;11.562;2023-04-25T13:19:51;3.20;;;2.15;;
36585;SDS011;22591;48.314;11.562;2023-04-25T13:22:16;2.15;;;1.80;;
36585;SDS011;22591;48.314;11.562;2023-04-25T13:24:44;1.73;;;1.63;;
36585;SDS011;22591;48.314;11.562;2023-04-25T13:27:09;1.10;;;1.10;;
36585;SDS011;22591;48.314;11.562;2023-04-25T13:29:35;0.93;;;0.93;;
36585;SDS011;22591;48.314;11.562;2023-04-25T13:32:03;1.67;;;0.85;;
36585;SDS011;22591;48.314;11.562;2023-04-25T13:34:28;0.90;;;0.90;;
36585;SDS011;22591;48.314;11.562;2023-04-25T13:36:54;1.10;;;0.90;;
36585;SDS011;22591;48.314;11.562;2023-04-25T13:39:20;1.02;;;0.77;;
36585;SDS011;22591;48.314;11.562;2023-04-25T13:41:45;0.80;;;0.80;;
36585;SDS011;22591;48.314;11.562;2023-04-25T13:44:11;0.60;;;0.60;;
36585;SDS011;22591;48.314;11.562;2023-04-25T13:46:37;0.75;;;0.70;;
36585;SDS011;22591;48.314;11.562;2023-04-25T13:49:03;1.17;;;1.08;;
36585;SDS011;22591;48.314;11.562;2023-04-25T13:51:29;1.02;;;1.02;;
36585;SDS011;22591;48.314;11.562;2023-04-25T13:53:55;0.90;;;0.90;;
36585;SDS011;22591;48.314;11.562;2023-04-25T13:56:21;1.38;;;1.27;;
36585;SDS011;22591;48.314;11.562;2023-04-25T13:58:48;1.45;;;1.35;;
36585;SDS011;22591;48.314;11.562;2023-04-25T14:01:13;1.67;;;1.58;;
36585;SDS011;22591;48.314;11.562;2023-04-25T14:03:39;1.77;;;1.48;;
36585;SDS011;22591;48.314;11.562;2023-04-25T14:06:06;3.03;;;1.35;;
36585;SDS011;22591;48.314;11.562;2023-04-25T14:08:33;2.15;;;2.00;;
36585;SDS011;22591;48.314;11.562;2023-04-25T14:10:59;2.15;;;2.05;;
36585;SDS011;22591;48.314;11.562;2023-04-25T14:13:24;2.97;;;1.80;;
36585;SDS011;22591;48.314;11.562;2023-04-25T14:15:50;2.13;;;2.03;;
36585;SDS011;22591;48.314;11.562;2023-04-25T14:18:15;2.22;;;2.13;;
36585;SDS011;22591;48.314;11.562;2023-04-25T14:20:42;1.88;;;1.77;;
36585;SDS011;22591;48.314;11.562;2023-04-25T14:23:07;1.63;;;1.52;;
36585;SDS011;22591;48.314;11.562;2023-04-25T14:25:33;1.70;;;1.60;;
36585;SDS011;22591;48.314;11.562;2023-04-25T14:28:00;2.28;;;2.17;;
36585;SDS011;22591;48.314;11.562;2023-04-25T14:30:26;2.08;;;1.98;;
36585;SDS011;22591;48.314;11.562;2023-04-25T14:32:51;2.35;;;2.25;;
36585;SDS011;22591;48.314;11.562;2023-04-25T14:35:17;2.10;;;2.00;;